Time;durP1;ratioP1;P1;durP2;ratioP2;P2;SDS_P1;SDS_P2;PMS_P1;PMS_P2;Temp;Humidity;BMP_temperature;BMP_pressure;BME280_temperature;BME280_humidity;BME280_pressure;Samples;Min_cycle;Max_cycle;Signal;HPM_P1;HPM_P2
2021/12/07 00:00:12;;;;;;;;;;;;;;;2.77;62.96;99282.47;4390808;32;33882;-84
2021/12/07 00:02:47;;;;;;;;;;;;;;;2.85;62.74;99280.12;4416144;32;33108;-82
2021/12/07 00:05:16;;;;;;;;;;;;;;;2.70;63.48;99269.87;4413974;32;34136;-83
2021/12/07 00:07:44;;;;;;;;;;;;;;;2.71;63.39;99269.75;4400206;32;35151;-84
2021/12/07 00:10:28;;;;;;;;;;;;;;;2.57;63.24;99275.16;4402859;32;33527;-83
2021/12/07 00:12:58;;;;;;;;;;;;;;;2.31;64.15;99281.34;4426687;32;32087;-83
2021/12/07 00:15:29;;;;;;;;;;;;;;;2.60;63.32;99280.19;4403662;32;34782;-82
2021/12/07 00:18:00;;;;;;;;;;;;;;;2.70;63.22;99275.13;4396259;32;35805;-83
2021/12/07 00:20:30;;;;;;;;;;;;;;;2.52;63.07;99277.25;4393285;32;35270;-83
2021/12/07 00:23:18;;;;;;;;;;;;;;;2.80;62.70;99271.72;4419620;32;32092;-83
2021/12/07 00:25:58;;;;;;;;;;;;;;;2.33;64.12;99278.63;4390744;32;33710;-83
2021/12/07 00:28:36;;;;;;;;;;;;;;;2.63;63.38;99284.37;4398485;32;36299;-82
2021/12/07 00:31:20;;;;;;;;;;;;;;;2.63;63.35;99298.31;4413598;32;34749;-82
2021/12/07 00:36:37;;;;;;;;;;;;;;;2.34;64.49;99296.06;4403147;32;32741;-83
2021/12/07 00:39:06;;;;;;;;;;;;;;;2.09;65.49;99299.53;4417354;32;34902;-83
2021/12/07 00:41:35;;;;;;;;;;;;;;;2.25;65.03;99289.63;4400166;32;33368;-83
2021/12/07 00:44:05;;;;;;;;;;;;;;;1.91;65.83;99285.03;4407272;32;33733;-82
2021/12/07 00:46:33;;;;;;;;;;;;;;;1.51;67.37;99279.91;4412764;32;32503;-82
2021/12/07 00:49:03;;;;;;;;;;;;;;;1.84;66.69;99280.28;4391155;32;34418;-82
2021/12/07 00:51:32;;;;;;;;;;;;;;;2.06;65.63;99276.09;4400913;32;33932;-82
2021/12/07 00:54:00;;;;;;;;;;;;;;;2.16;65.18;99281.56;4387469;32;32781;-82
2021/12/07 00:56:29;;;;;;;;;;;;;;;2.19;65.00;99283.97;4407689;32;34464;-82
2021/12/07 00:59:18;;;;;;;;;;;;;;;2.18;65.15;99274.44;4404473;32;34426;-82
2021/12/07 01:01:47;;;;;;;;;;;;;;;2.30;64.76;99281.44;4408833;32;35268;-83
2021/12/07 01:04:15;;;;;;;;;;;;;;;2.13;65.27;99279.13;4392975;32;33370;-83
2021/12/07 01:26:37;;;;;;;;;;;;;;;1.98;65.86;99257.41;4390950;32;33864;-83
2021/12/07 01:29:07;;;;;;;;;;;;;;;2.09;65.60;99265.41;4389098;32;34950;-82
2021/12/07 01:32:12;;;;;;;;;;;;;;;1.36;67.83;99263.41;4403101;32;34560;-82
2021/12/07 01:40:40;;;;;;;;;;;;;;;1.44;68.35;99255.88;4415640;32;35037;-83
2021/12/07 01:52:11;;;;;;;;;;;;;;;1.75;66.55;99250.28;4413702;32;33397;-82
2021/12/07 02:00:33;;;;;;;;;;;;;;;1.48;67.99;99259.97;4414926;32;33340;-82
2021/12/07 02:03:21;;;;;;;;;;;;;;;1.60;68.11;99258.31;4406176;32;33389;-82
2021/12/07 02:05:54;;;;;;;;;;;;;;;1.78;67.56;99254.47;4401196;32;33376;-82
2021/12/07 02:08:24;;;;;;;;;;;;;;;1.56;67.95;99260.31;4389394;32;33997;-82
2021/12/07 02:10:59;;;;;;;;;;;;;;;1.58;67.92;99263.66;4413368;32;34141;-83
2021/12/07 02:15:58;;;;;;;;;;;;;;;1.65;67.61;99258.84;4412691;32;34547;-82
2021/12/07 02:18:28;;;;;;;;;;;;;;;1.38;68.17;99256.28;4388519;32;34417;-82
2021/12/07 02:21:14;;;;;;;;;;;;;;;1.47;68.53;99253.03;4412585;32;32920;-83
2021/12/07 02:23:45;;;;;;;;;;;;;;;1.54;68.34;99250.84;4425380;32;33121;-82
2021/12/07 02:26:21;;;;;;;;;;;;;;;1.32;69.07;99250.59;4425024;32;35684;-82
2021/12/07 02:28:58;;;;;;;;;;;;;;;1.41;69.01;99250.00;4413243;32;34607;-82
2021/12/07 02:31:27;;;;;;;;;;;;;;;1.83;67.51;99244.50;4425658;32;32875;-82
2021/12/07 02:33:57;;;;;;;;;;;;;;;1.34;68.85;99246.09;4400529;32;33116;-82
2021/12/07 02:36:24;;;;;;;;;;;;;;;1.84;67.43;99247.03;4413146;32;34442;-82
2021/12/07 02:38:57;;;;;;;;;;;;;;;1.79;67.54;99248.28;4413155;32;33637;-82
2021/12/07 02:41:33;;;;;;;;;;;;;;;1.57;68.27;99243.62;4412446;32;32453;-83
2021/12/07 02:44:10;;;;;;;;;;;;;;;1.76;67.53;99245.84;4394982;32;33225;-83
2021/12/07 02:46:38;;;;;;;;;;;;;;;1.75;67.41;99238.94;4412766;32;34827;-82
2021/12/07 02:49:08;;;;;;;;;;;;;;;2.03;66.84;99228.25;4415498;32;34689;-83
2021/12/07 02:51:36;;;;;;;;;;;;;;;1.97;66.93;99233.94;4396808;32;32523;-83
2021/12/07 02:54:10;;;;;;;;;;;;;;;2.04;66.39;99229.91;4416178;32;34437;-83
2021/12/07 02:56:40;;;;;;;;;;;;;;;2.08;66.42;99228.78;4414214;32;34352;-82
2021/12/07 02:59:11;;;;;;;;;;;;;;;2.20;65.81;99227.94;4411119;32;34098;-82
2021/12/07 03:02:01;;;;;;;;;;;;;;;2.20;65.32;99223.53;4393170;32;32414;-82
2021/12/07 03:04:43;;;;;;;;;;;;;;;2.12;65.69;99230.25;4395915;32;34326;-82
2021/12/07 03:25:50;;;;;;;;;;;;;;;1.76;67.01;99224.88;4407113;32;34845;-82
2021/12/07 03:27:21;;;;;;;;;;;;;;;2.27;65.23;99218.69;4420263;32;33539;-83
2021/12/07 03:29:50;;;;;;;;;;;;;;;2.17;65.95;99228.16;4415983;32;34179;-83
2021/12/07 03:32:20;;;;;;;;;;;;;;;1.95;66.36;99223.53;4389408;32;34630;-83
2021/12/07 03:34:51;;;;;;;;;;;;;;;2.00;66.63;99226.69;4409929;32;32935;-83
2021/12/07 03:37:29;;;;;;;;;;;;;;;2.16;65.88;99221.22;4406253;32;33744;-83
2021/12/07 03:40:09;;;;;;;;;;;;;;;2.53;64.91;99223.78;4408429;32;35716;-83
2021/12/07 03:42:53;;;;;;;;;;;;;;;2.23;65.83;99222.47;4406247;32;35354;-83
2021/12/07 03:45:24;;;;;;;;;;;;;;;2.36;65.58;99223.31;4406735;32;35568;-83
2021/12/07 03:47:54;;;;;;;;;;;;;;;2.47;65.10;99223.37;4391321;32;33551;-83
2021/12/07 03:50:26;;;;;;;;;;;;;;;2.22;65.99;99226.88;4395943;32;35995;-83
2021/12/07 03:52:58;;;;;;;;;;;;;;;1.92;66.68;99229.00;4395823;32;34510;-83
2021/12/07 03:55:45;;;;;;;;;;;;;;;2.19;66.12;99237.59;4419163;32;32905;-83
2021/12/07 03:58:13;;;;;;;;;;;;;;;2.34;65.33;99233.06;4408985;32;34250;-83
2021/12/07 04:00:43;;;;;;;;;;;;;;;2.22;65.74;99232.13;4404509;32;34791;-83
2021/12/07 04:03:14;;;;;;;;;;;;;;;2.54;64.37;99224.63;4406855;32;34934;-83
2021/12/07 04:05:45;;;;;;;;;;;;;;;2.54;64.86;99235.97;4402887;32;33472;-83
2021/12/07 04:08:19;;;;;;;;;;;;;;;2.27;65.73;99229.19;4404926;32;33762;-83
2021/12/07 04:10:48;;;;;;;;;;;;;;;2.30;65.74;99231.59;4412332;32;35280;-82
2021/12/07 04:13:25;;;;;;;;;;;;;;;2.27;65.62;99234.44;4395944;32;33053;-83
2021/12/07 04:15:57;;;;;;;;;;;;;;;2.35;65.17;99232.13;4407655;32;32511;-83
2021/12/07 04:18:30;;;;;;;;;;;;;;;2.34;65.38;99235.69;4391342;32;32872;-83
2021/12/07 04:21:03;;;;;;;;;;;;;;;2.21;65.84;99235.69;4430956;32;34519;-82
2021/12/07 04:23:51;;;;;;;;;;;;;;;2.35;65.25;99232.13;4405516;32;34313;-83
2021/12/07 04:26:20;;;;;;;;;;;;;;;2.42;65.32;99233.34;4397492;32;32452;-83
2021/12/07 04:28:49;;;;;;;;;;;;;;;2.23;65.49;99241.69;4409541;32;34361;-83
2021/12/07 04:31:32;;;;;;;;;;;;;;;2.16;65.86;99236.97;4405627;32;34963;-83
2021/12/07 04:34:00;;;;;;;;;;;;;;;2.57;64.78;99248.03;4378042;32;33462;-83
2021/12/07 04:36:32;;;;;;;;;;;;;;;2.36;65.25;99252.16;4406540;32;32623;-83
2021/12/07 04:39:01;;;;;;;;;;;;;;;2.33;65.70;99253.22;4419439;32;34199;-83
2021/12/07 04:41:32;;;;;;;;;;;;;;;2.24;65.17;99245.97;4416860;32;35937;-82
2021/12/07 04:44:03;;;;;;;;;;;;;;;2.29;65.39;99248.28;4393862;32;34106;-83
2021/12/07 04:46:49;;;;;;;;;;;;;;;2.23;65.60;99244.31;4394251;32;32437;-83
2021/12/07 04:58:50;;;;;;;;;;;;;;;2.53;64.70;99257.09;4338431;32;31914;-83
2021/12/07 05:01:21;;;;;;;;;;;;;;;2.64;64.04;99265.06;4361080;32;33487;-83
2021/12/07 05:04:07;;;;;;;;;;;;;;;2.55;64.52;99268.31;4358679;32;35540;-83
2021/12/07 05:06:45;;;;;;;;;;;;;;;2.52;64.65;99258.84;4357057;32;35083;-83
2021/12/07 05:14:45;;;;;;;;;;;;;;;2.35;65.15;99266.25;4357598;32;34870;-82
2021/12/07 05:24:08;;;;;;;;;;;;;;;2.18;65.21;99262.13;4307356;33;33741;-83
2021/12/07 05:38:07;;;;;;;;;;;;;;;1.89;66.40;99273.78;4369733;32;36054;-82
2021/12/07 05:40:44;;;;;;;;;;;;;;;1.80;66.65;99274.38;4368033;32;33556;-84
2021/12/07 05:43:12;;;;;;;;;;;;;;;1.72;66.60;99274.09;4367965;32;32750;-82
2021/12/07 05:45:50;;;;;;;;;;;;;;;1.73;67.17;99269.66;4368956;32;35891;-82
2021/12/07 05:48:38;;;;;;;;;;;;;;;2.06;65.96;99270.03;4356398;32;34962;-83
2021/12/07 05:51:14;;;;;;;;;;;;;;;2.09;65.56;99259.31;4347833;32;34411;-82
2021/12/07 05:53:46;;;;;;;;;;;;;;;1.80;66.63;99255.22;4344336;32;33203;-82
2021/12/07 05:56:20;;;;;;;;;;;;;;;1.94;65.95;99258.56;4347702;32;34312;-81
2021/12/07 05:58:50;;;;;;;;;;;;;;;2.11;65.44;99257.41;4396365;32;34706;-82
2021/12/07 06:01:20;;;;;;;;;;;;;;;2.05;65.34;99252.63;4413361;32;33436;-82
2021/12/07 06:04:05;;;;;;;;;;;;;;;1.98;65.21;99253.97;4413622;32;31974;-80
2021/12/07 06:06:38;;;;;;;;;;;;;;;2.12;65.10;99251.22;4418510;32;33251;-81
2021/12/07 06:09:08;;;;;;;;;;;;;;;2.01;65.38;99253.75;4406024;32;34473;-81
2021/12/07 06:11:38;;;;;;;;;;;;;;;1.79;65.81;99258.78;4406611;32;35241;-81
2021/12/07 06:14:05;;;;;;;;;;;;;;;2.11;65.14;99258.28;4388562;32;32894;-80
2021/12/07 06:16:53;;;;;;;;;;;;;;;1.84;66.07;99259.28;4386418;32;32938;-80
2021/12/07 06:19:26;;;;;;;;;;;;;;;2.01;65.35;99257.22;4389484;32;34512;-80
2021/12/07 06:22:01;;;;;;;;;;;;;;;2.22;64.96;99266.25;4398506;32;34329;-80
2021/12/07 06:24:29;;;;;;;;;;;;;;;2.04;65.32;99264.88;4401288;32;32205;-81
2021/12/07 06:27:02;;;;;;;;;;;;;;;1.92;65.68;99257.84;4415184;32;33412;-81
2021/12/07 06:29:29;;;;;;;;;;;;;;;1.98;65.49;99252.16;4391709;32;35456;-81
2021/12/07 06:31:59;;;;;;;;;;;;;;;2.13;64.56;99256.38;4405685;32;34257;-81
2021/12/07 06:34:29;;;;;;;;;;;;;;;2.01;65.26;99262.47;4416924;32;32848;-80
2021/12/07 06:37:04;;;;;;;;;;;;;;;2.08;65.04;99263.72;4385686;32;33989;-81
2021/12/07 06:39:33;;;;;;;;;;;;;;;1.87;65.30;99265.16;4395785;32;34443;-81
2021/12/07 06:42:01;;;;;;;;;;;;;;;1.88;65.64;99269.47;4401063;32;33911;-81
2021/12/07 06:44:29;;;;;;;;;;;;;;;2.09;64.74;99261.94;4388365;32;32883;-81
2021/12/07 06:46:58;;;;;;;;;;;;;;;2.21;64.37;99259.31;4401787;32;34537;-81
2021/12/07 06:49:33;;;;;;;;;;;;;;;2.28;64.21;99262.34;4414553;32;34060;-81
2021/12/07 06:52:03;;;;;;;;;;;;;;;1.85;64.77;99260.97;4409024;32;34600;-81
2021/12/07 06:54:30;;;;;;;;;;;;;;;2.35;63.74;99261.81;4423628;32;34376;-81
2021/12/07 06:57:15;;;;;;;;;;;;;;;2.06;64.53;99268.22;4409705;32;33195;-81
2021/12/07 06:59:42;;;;;;;;;;;;;;;2.22;64.03;99266.25;4418708;32;35355;-81
2021/12/07 07:02:14;;;;;;;;;;;;;;;2.39;63.27;99267.69;4422718;32;35246;-80
2021/12/07 07:04:51;;;;;;;;;;;;;;;1.90;64.41;99277.25;4433252;32;32976;-81
2021/12/07 07:07:34;;;;;;;;;;;;;;;1.73;65.47;99286.25;4412415;32;34784;-81
2021/12/07 07:10:22;;;;;;;;;;;;;;;2.05;64.83;99276.22;4399635;32;34638;-81
2021/12/07 07:12:52;;;;;;;;;;;;;;;1.66;65.39;99281.50;4420376;32;33975;-81
2021/12/07 07:15:19;;;;;;;;;;;;;;;1.75;66.01;99288.75;4393300;32;34132;-80
2021/12/07 07:17:47;;;;;;;;;;;;;;;1.86;65.32;99288.88;4437526;32;32533;-80
2021/12/07 07:20:15;;;;;;;;;;;;;;;1.74;66.03;99285.31;4410343;32;34988;-81
2021/12/07 07:22:43;;;;;;;;;;;;;;;1.92;65.39;99291.09;4421842;32;34474;-81
2021/12/07 07:25:12;;;;;;;;;;;;;;;1.96;65.06;99282.09;4434877;32;32989;-81
2021/12/07 07:27:40;;;;;;;;;;;;;;;1.76;66.00;99288.66;4394301;32;33859;-81
2021/12/07 07:30:08;;;;;;;;;;;;;;;2.12;64.84;99288.81;4412669;32;34460;-81
2021/12/07 07:32:36;;;;;;;;;;;;;;;2.16;64.82;99286.81;4430682;32;33161;-81
2021/12/07 07:35:24;;;;;;;;;;;;;;;1.94;65.49;99281.31;4419491;32;31671;-81
2021/12/07 07:37:55;;;;;;;;;;;;;;;2.20;64.05;99281.25;4414022;32;32821;-81
2021/12/07 07:40:45;;;;;;;;;;;;;;;2.16;64.32;99290.25;4407820;32;34238;-81
2021/12/07 07:43:17;;;;;;;;;;;;;;;2.55;63.77;99299.81;4419207;32;35300;-81
2021/12/07 07:45:47;;;;;;;;;;;;;;;2.60;63.25;99298.56;4406425;32;33846;-81
2021/12/07 07:48:16;;;;;;;;;;;;;;;2.55;63.01;99295.41;4410029;32;34224;-81
2021/12/07 07:50:44;;;;;;;;;;;;;;;2.37;63.23;99301.09;4397902;32;34433;-81
2021/12/07 07:53:12;;;;;;;;;;;;;;;2.58;63.03;99302.22;4399897;32;32963;-81
2021/12/07 07:55:57;;;;;;;;;;;;;;;2.52;63.23;99306.13;4412591;32;33201;-81
2021/12/07 07:58:32;;;;;;;;;;;;;;;2.86;62.16;99300.19;4412461;32;33737;-81
2021/12/07 08:01:08;;;;;;;;;;;;;;;2.84;62.13;99302.09;4397883;32;34650;-81
2021/12/07 08:03:37;;;;;;;;;;;;;;;2.75;62.06;99306.19;4424879;32;33765;-81
2021/12/07 08:06:05;;;;;;;;;;;;;;;3.01;61.79;99304.34;4412120;32;32177;-81
2021/12/07 08:08:32;;;;;;;;;;;;;;;2.84;61.76;99302.09;4399535;32;33601;-81
2021/12/07 08:11:02;;;;;;;;;;;;;;;2.69;61.87;99303.16;4412066;32;35363;-83
2021/12/07 08:13:33;;;;;;;;;;;;;;;2.41;62.71;99305.16;4399814;32;34482;-81
2021/12/07 08:16:04;;;;;;;;;;;;;;;2.42;62.74;99320.81;4412023;32;32896;-82
2021/12/07 08:18:33;;;;;;;;;;;;;;;2.46;62.63;99314.41;4399613;32;32630;-81
2021/12/07 08:21:00;;;;;;;;;;;;;;;2.62;62.83;99303.72;4424577;32;34949;-82
2021/12/07 08:23:48;;;;;;;;;;;;;;;2.52;63.16;99315.78;4412450;32;34597;-82
2021/12/07 08:26:17;;;;;;;;;;;;;;;2.69;63.09;99318.91;4399597;32;34390;-82
2021/12/07 08:28:57;;;;;;;;;;;;;;;2.75;62.50;99321.94;4400866;32;32788;-81
2021/12/07 08:31:26;;;;;;;;;;;;;;;2.95;62.22;99313.50;4424443;32;34457;-82
2021/12/07 08:34:16;;;;;;;;;;;;;;;2.78;62.70;99316.47;4401817;32;33064;-82
2021/12/07 08:37:03;;;;;;;;;;;;;;;3.02;61.83;99308.66;4412107;32;33362;-82
2021/12/07 08:39:39;;;;;;;;;;;;;;;3.10;61.65;99307.16;4412388;32;33456;-82
2021/12/07 08:42:07;;;;;;;;;;;;;;;3.15;61.55;99309.47;4411205;32;33663;-82
2021/12/07 08:44:35;;;;;;;;;;;;;;;2.63;63.23;99314.09;4411697;32;33569;-82
2021/12/07 08:47:09;;;;;;;;;;;;;;;2.90;62.85;99310.38;4426087;32;33998;-82
2021/12/07 08:50:00;;;;;;;;;;;;;;;2.49;63.49;99308.13;4412115;32;34428;-82
2021/12/07 08:52:37;;;;;;;;;;;;;;;2.64;63.58;99302.63;4420098;32;36123;-82
2021/12/07 09:00:56;;;;;;;;;;;;;;;2.93;63.01;99302.28;4418453;32;35154;-82
2021/12/07 09:03:25;;;;;;;;;;;;;;;2.95;62.98;99299.53;4406842;32;36068;-82
2021/12/07 09:06:13;;;;;;;;;;;;;;;3.32;62.32;99299.41;4424235;32;36505;-82
2021/12/07 09:08:45;;;;;;;;;;;;;;;3.78;60.67;99287.19;4418765;32;32475;-82
2021/12/07 09:11:14;;;;;;;;;;;;;;;4.10;59.98;99287.41;4414640;32;34185;-81
2021/12/07 09:13:47;;;;;;;;;;;;;;;3.92;59.73;99296.69;4429226;32;35826;-82
2021/12/07 09:16:17;;;;;;;;;;;;;;;4.17;59.61;99294.69;4404525;32;33803;-82
2021/12/07 09:18:48;;;;;;;;;;;;;;;3.81;59.97;99296.66;4418262;32;34177;-82
2021/12/07 09:21:16;;;;;;;;;;;;;;;3.96;59.69;99292.87;4406709;32;33235;-82
2021/12/07 09:23:47;;;;;;;;;;;;;;;4.03;59.83;99289.66;4404588;32;35202;-82
2021/12/07 09:26:15;;;;;;;;;;;;;;;4.33;59.22;99289.94;4440057;32;34135;-82
2021/12/07 14:32:20;;;;;;;;;;;;;;;6.64;52.99;99278.69;4491556;26;34127;-80
2021/12/07 14:34:49;;;;;;;;;;;;;;;6.42;53.08;99281.50;4450932;32;32085;-78
2021/12/07 14:37:17;;;;;;;;;;;;;;;6.33;53.41;99282.28;4424679;32;34481;-78
2021/12/07 14:39:46;;;;;;;;;;;;;;;6.22;53.79;99284.97;4432356;32;32941;-78
2021/12/07 14:42:17;;;;;;;;;;;;;;;5.96;54.39;99291.63;4432823;32;32411;-78
2021/12/07 14:44:46;;;;;;;;;;;;;;;5.35;56.13;99286.19;4436708;32;32729;-79
2021/12/07 14:47:16;;;;;;;;;;;;;;;5.08;56.76;99288.41;4454269;32;35176;-79
2021/12/07 14:49:45;;;;;;;;;;;;;;;4.90;57.50;99282.78;4454579;32;35246;-79
2021/12/07 14:52:24;;;;;;;;;;;;;;;4.79;58.17;99288.06;4419835;32;33878;-78
2021/12/07 14:54:53;;;;;;;;;;;;;;;4.83;58.18;99292.13;4433150;32;34043;-78
2021/12/07 14:57:21;;;;;;;;;;;;;;;5.04;57.47;99285.16;4410012;32;35167;-79
2021/12/07 14:59:58;;;;;;;;;;;;;;;5.03;57.51;99291.41;4424579;32;34395;-79
2021/12/07 15:02:27;;;;;;;;;;;;;;;4.68;58.52;99292.47;4438717;32;35154;-79
2021/12/07 15:05:00;;;;;;;;;;;;;;;4.73;58.35;99292.97;4433060;32;33783;-79
2021/12/07 15:07:33;;;;;;;;;;;;;;;4.67;58.64;99293.44;4438730;32;35191;-79
2021/12/07 15:10:03;;;;;;;;;;;;;;;4.35;59.75;99297.75;4425470;32;33769;-79
2021/12/07 15:12:39;;;;;;;;;;;;;;;4.36;59.23;99292.34;4427953;32;33602;-79
2021/12/07 15:15:07;;;;;;;;;;;;;;;4.73;58.37;99299.06;4431806;32;33639;-78
2021/12/07 15:17:35;;;;;;;;;;;;;;;4.47;59.07;99307.31;4435373;32;36904;-79
2021/12/07 15:20:07;;;;;;;;;;;;;;;4.43;59.26;99300.63;4438128;32;33572;-79
2021/12/07 15:22:35;;;;;;;;;;;;;;;4.59;58.60;99294.06;4450919;32;33974;-78
2021/12/07 15:25:03;;;;;;;;;;;;;;;4.24;59.34;99303.00;4426826;32;33774;-78
2021/12/07 15:27:31;;;;;;;;;;;;;;;4.40;59.36;99300.84;4411128;32;34907;-79
2021/12/07 15:30:00;;;;;;;;;;;;;;;4.48;59.04;99303.72;4432735;32;33403;-78
2021/12/07 15:32:30;;;;;;;;;;;;;;;4.07;60.01;99306.87;4433031;32;33601;-78
2021/12/07 15:35:00;;;;;;;;;;;;;;;4.44;59.11;99313.66;4433177;32;33660;-78
2021/12/07 15:37:28;;;;;;;;;;;;;;;4.52;58.60;99311.28;4425611;32;34928;-79
2021/12/07 15:39:57;;;;;;;;;;;;;;;4.41;58.93;99318.31;4438598;32;34487;-78
2021/12/07 15:42:27;;;;;;;;;;;;;;;4.23;59.55;99322.34;4449766;32;32409;-79
2021/12/07 15:45:10;;;;;;;;;;;;;;;4.08;59.93;99328.78;4452129;32;33474;-79
2021/12/07 15:47:40;;;;;;;;;;;;;;;4.37;59.24;99324.78;4438262;32;34811;-79
2021/12/07 15:50:11;;;;;;;;;;;;;;;4.14;59.94;99325.72;4453682;32;33963;-79
2021/12/07 15:52:51;;;;;;;;;;;;;;;4.27;59.51;99319.38;4432371;32;33694;-79
2021/12/07 15:55:22;;;;;;;;;;;;;;;4.23;59.34;99310.03;4423858;32;34513;-80
2021/12/07 15:57:55;;;;;;;;;;;;;;;4.08;60.16;99302.47;4450646;32;34936;-79
2021/12/07 16:00:34;;;;;;;;;;;;;;;4.22;59.58;99308.37;4450764;32;34309;-79
2021/12/07 16:03:04;;;;;;;;;;;;;;;4.04;60.04;99303.66;4428294;32;33547;-79
2021/12/07 16:05:50;;;;;;;;;;;;;;;3.81;60.88;99312.44;4434824;32;32601;-80
2021/12/07 16:08:20;;;;;;;;;;;;;;;4.01;60.06;99307.37;4440428;32;34562;-79
2021/12/07 16:10:50;;;;;;;;;;;;;;;3.44;61.84;99310.81;4438655;32;35137;-79
2021/12/07 16:13:19;;;;;;;;;;;;;;;3.60;61.45;99309.59;4411131;32;32517;-78
2021/12/07 16:15:56;;;;;;;;;;;;;;;3.67;61.24;99307.34;4429527;32;34060;-78
2021/12/07 16:18:24;;;;;;;;;;;;;;;3.86;60.59;99313.75;4435984;32;34260;-79
2021/12/07 16:20:54;;;;;;;;;;;;;;;3.79;60.97;99315.16;4445577;32;34429;-78
2021/12/07 16:23:21;;;;;;;;;;;;;;;3.79;60.89;99316.97;4425841;32;33616;-77
2021/12/07 16:25:53;;;;;;;;;;;;;;;3.55;61.57;99313.50;4414720;32;35460;-78
2021/12/07 16:28:46;;;;;;;;;;;;;;;3.41;62.03;99319.78;4436512;32;34838;-86
2021/12/07 16:31:16;;;;;;;;;;;;;;;3.81;60.89;99318.53;4422384;32;33503;-80
2021/12/07 16:33:47;;;;;;;;;;;;;;;3.76;60.99;99320.66;4430296;32;33655;-86
2021/12/07 16:36:38;;;;;;;;;;;;;;;3.62;61.45;99320.81;4422115;32;34514;-81
2021/12/07 16:39:07;;;;;;;;;;;;;;;3.85;60.65;99327.03;4440417;32;35367;-80
2021/12/07 16:41:35;;;;;;;;;;;;;;;3.92;60.20;99325.63;4439081;32;34002;-78
2021/12/07 16:44:03;;;;;;;;;;;;;;;3.88;60.35;99325.00;4435405;32;33193;-79
2021/12/07 16:46:31;;;;;;;;;;;;;;;3.84;60.38;99334.09;4432993;32;32450;-78
2021/12/07 16:49:22;;;;;;;;;;;;;;;3.87;60.21;99331.22;4440518;32;34457;-78
2021/12/07 16:51:50;;;;;;;;;;;;;;;3.62;60.48;99333.97;4426121;32;34473;-79
2021/12/07 16:54:24;;;;;;;;;;;;;;;3.59;61.14;99328.13;4428350;32;32789;-78
2021/12/07 16:56:52;;;;;;;;;;;;;;;3.62;60.87;99338.41;4438532;32;33986;-78
2021/12/07 16:59:19;;;;;;;;;;;;;;;3.57;61.16;99333.50;4440133;32;35553;-78
2021/12/07 17:01:49;;;;;;;;;;;;;;;2.88;63.28;99330.66;4414916;32;33292;-78
2021/12/07 17:04:23;;;;;;;;;;;;;;;3.04;63.16;99336.50;4438017;32;32524;-78
2021/12/07 17:06:50;;;;;;;;;;;;;;;2.80;63.79;99337.37;4445489;32;34076;-77
2021/12/07 17:09:18;;;;;;;;;;;;;;;3.06;63.00;99336.41;4427465;32;34163;-78
2021/12/07 17:11:46;;;;;;;;;;;;;;;2.98;63.43;99333.47;4431676;32;33704;-78
2021/12/07 17:14:13;;;;;;;;;;;;;;;2.85;63.57;99330.03;4414736;32;31871;-79
2021/12/07 17:16:42;;;;;;;;;;;;;;;2.81;64.02;99326.78;4427006;32;32799;-78
2021/12/07 17:19:20;;;;;;;;;;;;;;;2.72;64.23;99331.81;4439656;32;34927;-78
2021/12/07 17:21:49;;;;;;;;;;;;;;;2.81;64.02;99336.44;4440436;32;34323;-78
2021/12/07 17:24:20;;;;;;;;;;;;;;;2.56;65.05;99340.88;4426293;32;33659;-78
2021/12/07 17:26:49;;;;;;;;;;;;;;;2.55;65.05;99339.22;4439861;32;35471;-77
2021/12/07 17:29:17;;;;;;;;;;;;;;;2.49;65.09;99339.63;4420934;32;36465;-77
2021/12/07 17:31:45;;;;;;;;;;;;;;;2.26;66.03;99342.97;4433209;32;34635;-78
2021/12/07 17:34:14;;;;;;;;;;;;;;;2.64;64.81;99342.03;4433163;32;32096;-78
2021/12/07 17:36:47;;;;;;;;;;;;;;;2.50;65.09;99339.53;4443550;32;34092;-78
2021/12/07 17:39:15;;;;;;;;;;;;;;;2.49;65.10;99350.12;4432886;32;36949;-78
2021/12/07 17:41:48;;;;;;;;;;;;;;;2.27;65.61;99353.34;4426804;32;33297;-78
2021/12/07 17:44:16;;;;;;;;;;;;;;;2.56;64.79;99349.62;4439325;32;33437;-78
2021/12/07 17:46:44;;;;;;;;;;;;;;;2.16;66.17;99349.78;4427290;32;34227;-78
2021/12/07 17:49:13;;;;;;;;;;;;;;;2.51;65.35;99346.44;4426751;32;35246;-77
2021/12/07 17:51:42;;;;;;;;;;;;;;;2.39;65.69;99355.16;4440067;32;35266;-78
2021/12/07 17:54:10;;;;;;;;;;;;;;;2.44;65.51;99353.06;4439023;32;33762;-78
2021/12/07 17:56:42;;;;;;;;;;;;;;;2.25;66.09;99351.81;4419993;32;33733;-77
2021/12/07 17:59:10;;;;;;;;;;;;;;;2.03;67.03;99352.41;4412906;32;34128;-78
2021/12/07 18:01:37;;;;;;;;;;;;;;;2.50;65.75;99351.78;4412644;32;34522;-78
2021/12/07 18:04:06;;;;;;;;;;;;;;;2.10;66.33;99351.03;4424732;32;33483;-78
2021/12/07 18:06:34;;;;;;;;;;;;;;;2.07;66.86;99348.59;4424500;32;34259;-78
2021/12/07 18:09:02;;;;;;;;;;;;;;;2.17;66.38;99349.66;4454982;32;34883;-78
2021/12/07 18:11:35;;;;;;;;;;;;;;;2.15;66.63;99369.94;4427037;32;34903;-78
2021/12/07 18:14:03;;;;;;;;;;;;;;;2.31;66.07;99365.34;4426047;32;33459;-78
2021/12/07 18:16:31;;;;;;;;;;;;;;;2.63;64.69;99368.41;4431282;32;33741;-78
2021/12/07 18:18:59;;;;;;;;;;;;;;;2.23;65.92;99375.50;4433696;32;34446;-77
2021/12/07 18:21:28;;;;;;;;;;;;;;;2.35;65.86;99376.47;4433861;32;33837;-78
2021/12/07 18:24:00;;;;;;;;;;;;;;;2.47;65.29;99378.25;4438279;32;34149;-78
2021/12/07 18:26:31;;;;;;;;;;;;;;;2.55;64.54;99383.84;4420681;32;32693;-78
2021/12/07 18:29:01;;;;;;;;;;;;;;;2.41;65.37;99387.41;4427461;32;35783;-78
2021/12/07 18:31:29;;;;;;;;;;;;;;;2.36;65.44;99386.84;4427342;32;33762;-78
2021/12/07 18:33:57;;;;;;;;;;;;;;;2.03;66.87;99390.87;4427494;32;33373;-79
2021/12/07 18:36:26;;;;;;;;;;;;;;;2.20;65.95;99385.38;4432708;32;34395;-79
2021/12/07 18:38:55;;;;;;;;;;;;;;;2.32;65.32;99393.25;4438714;32;34588;-79
2021/12/07 18:41:29;;;;;;;;;;;;;;;1.93;66.73;99398.53;4414850;32;34140;-79
2021/12/07 18:50:28;;;;;;;;;;;;;;;2.07;66.33;99403.69;4441305;32;35439;-80
2021/12/07 18:57:15;;;;;;;;;;;;;;;2.32;65.63;99405.53;4407073;32;33298;-80
2021/12/07 18:59:48;;;;;;;;;;;;;;;;;;;;;
2021/12/07 19:05:56;;;;;;;;;;;;;;;2.60;64.61;99400.09;4399965;32;20947;-78
2021/12/07 19:08:24;;;;;;;;;;;;;;;1.85;66.33;99403.44;4380334;32;33543;-79
2021/12/07 19:10:56;;;;;;;;;;;;;;;2.11;66.30;99402.56;4398340;32;32874;-78
2021/12/07 19:13:24;;;;;;;;;;;;;;;2.10;66.14;99400.91;4398952;32;35136;-78
2021/12/07 19:16:06;;;;;;;;;;;;;;;1.92;66.84;99401.25;4392107;32;34635;-79
2021/12/07 19:18:38;;;;;;;;;;;;;;;2.24;65.76;99400.81;4397430;32;32583;-79
2021/12/07 19:21:15;;;;;;;;;;;;;;;2.33;65.54;99402.00;4388804;32;33869;-78
2021/12/07 19:26:29;;;;;;;;;;;;;;;2.27;65.67;99400.59;4408294;32;32336;-84
2021/12/07 19:28:58;;;;;;;;;;;;;;;2.26;65.70;99408.59;4409029;32;33582;-84
2021/12/07 19:31:25;;;;;;;;;;;;;;;2.25;65.45;99409.53;4420950;32;33821;-83
2021/12/07 19:33:54;;;;;;;;;;;;;;;2.12;66.10;99406.87;4397180;32;35153;-83
2021/12/07 19:36:23;;;;;;;;;;;;;;;2.04;66.62;99403.06;4403233;32;35166;-83
2021/12/07 19:38:51;;;;;;;;;;;;;;;2.08;66.58;99399.31;4424227;32;33506;-83
2021/12/07 19:41:22;;;;;;;;;;;;;;;2.09;66.55;99403.59;4411823;32;32019;-83
2021/12/07 19:43:50;;;;;;;;;;;;;;;2.31;65.65;99409.09;4425033;32;35483;-84
2021/12/07 19:46:19;;;;;;;;;;;;;;;2.00;66.49;99412.09;4412920;32;35272;-83
2021/12/07 19:48:47;;;;;;;;;;;;;;;1.69;67.17;99407.97;4415102;32;33202;-83
2021/12/07 19:51:17;;;;;;;;;;;;;;;2.24;65.82;99406.06;4422629;32;32760;-83
2021/12/07 19:56:49;;;;;;;;;;;;;;;2.15;65.87;99403.22;4439481;27;33626;-76
2021/12/07 19:59:42;;;;;;;;;;;;;;;1.70;67.53;99407.03;4441063;32;32633;-76
2021/12/07 20:02:11;;;;;;;;;;;;;;;1.34;68.42;99401.50;4430051;32;35721;-75
2021/12/07 20:04:41;;;;;;;;;;;;;;;1.54;68.19;99392.41;4440957;32;36104;-75
2021/12/07 20:07:11;;;;;;;;;;;;;;;1.70;67.67;99393.94;4430957;32;33918;-76
2021/12/07 20:09:41;;;;;;;;;;;;;;;2.14;66.13;99384.00;4430833;32;33908;-76
2021/12/07 20:12:10;;;;;;;;;;;;;;;2.25;65.64;99386.75;4439545;32;35041;-76
2021/12/07 20:14:39;;;;;;;;;;;;;;;2.24;65.56;99385.06;4434647;32;35637;-77
2021/12/07 20:17:09;;;;;;;;;;;;;;;2.08;65.89;99387.00;4438338;32;34742;-77
2021/12/07 20:19:39;;;;;;;;;;;;;;;2.51;64.66;99387.59;4427870;32;34366;-76
2021/12/07 20:22:08;;;;;;;;;;;;;;;2.02;66.06;99392.69;4442714;32;34172;-76
2021/12/07 20:24:36;;;;;;;;;;;;;;;2.12;65.82;99388.50;4442196;32;34589;-77
2021/12/07 20:27:25;;;;;;;;;;;;;;;2.38;64.90;99390.25;4442512;32;34664;-77
2021/12/07 20:29:53;;;;;;;;;;;;;;;2.17;65.45;99380.34;4442884;32;33416;-77